Time;durP1;ratioP1;P1;durP2;ratioP2;P2;SDS_P1;SDS_P2;PMS_P1;PMS_P2;Temp;Humidity;BMP_temperature;BMP_pressure;BME280_temperature;BME280_humidity;BME280_pressure;Samples;Min_cycle;Max_cycle;Signal;HPM_P1;HPM_P2
2022/05/30 00:00:44;;;;;;;;;;;14.50;76.00;;;;;;4986651;28;20031;-82
2022/05/30 00:03:09;;;;;;;;;;;14.60;76.30;;;;;;4985866;28;19906;-83
2022/05/30 00:05:35;;;;;;;;;;;14.50;76.50;;;;;;4984858;28;20392;-83
2022/05/30 00:08:01;;;;;;;;;;;14.50;76.70;;;;;;4984634;28;20153;-83
2022/05/30 00:10:27;;;;;;;;;;;14.40;76.50;;;;;;4986274;28;19906;-82
2022/05/30 00:12:53;;;;;;;;;;;14.40;76.60;;;;;;4985439;28;19906;-83
2022/05/30 00:15:20;;;;;;;;;;;14.30;76.90;;;;;;4982612;28;19921;-83
2022/05/30 00:17:45;;;;;;;;;;;14.30;77.00;;;;;;4981422;28;20183;-83
2022/05/30 00:20:12;;;;;;;;;;;14.30;77.40;;;;;;4983008;28;19977;-83
2022/05/30 00:22:38;;;;;;;;;;;14.20;77.40;;;;;;4981291;28;20217;-83
2022/05/30 00:25:03;;;;;;;;;;;14.30;77.20;;;;;;4986261;28;19906;-83
2022/05/30 00:27:29;;;;;;;;;;;14.20;77.30;;;;;;4986131;28;19981;-82
2022/05/30 00:29:55;;;;;;;;;;;14.10;78.10;;;;;;4968947;28;19906;-83
2022/05/30 00:32:21;;;;;;;;;;;14.10;78.20;;;;;;4985304;28;19906;-83
2022/05/30 00:34:47;;;;;;;;;;;14.00;78.40;;;;;;4986319;28;19913;-83
2022/05/30 00:37:12;;;;;;;;;;;14.00;79.30;;;;;;4986315;28;19915;-83
2022/05/30 00:39:38;;;;;;;;;;;13.80;79.40;;;;;;4985852;28;19913;-83
2022/05/30 00:42:10;;;;;;;;;;;13.80;79.50;;;;;;4985412;28;19922;-83
2022/05/30 00:44:36;;;;;;;;;;;13.80;79.50;;;;;;4982103;28;19912;-83
2022/05/30 00:47:01;;;;;;;;;;;13.80;79.60;;;;;;4985757;28;19906;-83
2022/05/30 00:49:27;;;;;;;;;;;13.80;80.10;;;;;;4985537;28;19913;-83
2022/05/30 00:51:55;;;;;;;;;;;13.70;80.60;;;;;;4984801;28;19906;-83
2022/05/30 00:54:29;;;;;;;;;;;13.60;81.10;;;;;;4985756;28;19910;-83
2022/05/30 00:56:57;;;;;;;;;;;13.60;81.30;;;;;;4984556;28;19921;-83
2022/05/30 00:59:22;;;;;;;;;;;13.50;80.70;;;;;;4986000;28;20094;-83
2022/05/30 01:01:48;;;;;;;;;;;13.50;81.00;;;;;;4985174;28;19910;-83
2022/05/30 01:06:59;;;;;;;;;;;13.40;81.80;;;;;;4985412;28;19913;-83
2022/05/30 01:09:30;;;;;;;;;;;13.40;81.90;;;;;;4985200;28;19907;-83
2022/05/30 01:11:57;;;;;;;;;;;13.40;81.70;;;;;;4982627;28;19906;-82
2022/05/30 01:14:25;;;;;;;;;;;13.40;82.40;;;;;;4984511;28;19906;-83
2022/05/30 01:16:50;;;;;;;;;;;13.50;82.60;;;;;;4985862;28;20253;-83
2022/05/30 01:19:25;;;;;;;;;;;13.40;81.90;;;;;;4985018;28;19917;-83
2022/05/30 01:21:57;;;;;;;;;;;13.40;82.30;;;;;;4985360;28;19906;-83
2022/05/30 01:24:25;;;;;;;;;;;13.40;82.30;;;;;;4983986;28;19914;-83
2022/05/30 01:27:23;;;;;;;;;;;13.40;82.20;;;;;;4983761;28;19910;-82
2022/05/30 01:29:58;;;;;;;;;;;13.40;82.70;;;;;;4952372;28;19906;-83
2022/05/30 01:32:24;;;;;;;;;;;13.40;82.90;;;;;;4984901;28;19913;-83
2022/05/30 01:34:50;;;;;;;;;;;13.30;82.30;;;;;;4985146;28;19906;-83
2022/05/30 01:37:16;;;;;;;;;;;13.30;82.30;;;;;;4985318;28;20190;-82
2022/05/30 01:39:41;;;;;;;;;;;13.30;83.40;;;;;;4985404;28;19906;-83
2022/05/30 01:42:07;;;;;;;;;;;13.30;82.80;;;;;;4967331;28;19914;-82
2022/05/30 01:44:32;;;;;;;;;;;13.20;82.90;;;;;;4985102;28;19973;-83
2022/05/30 01:46:58;;;;;;;;;;;13.20;82.90;;;;;;4984974;28;20182;-82
2022/05/30 01:49:23;;;;;;;;;;;13.20;83.10;;;;;;4984919;28;19906;-83
2022/05/30 01:51:53;;;;;;;;;;;13.20;83.10;;;;;;4984810;28;20049;-83
2022/05/30 01:54:18;;;;;;;;;;;13.20;82.90;;;;;;4983544;28;19914;-83
2022/05/30 01:56:44;;;;;;;;;;;13.20;83.80;;;;;;4985017;28;20194;-83
2022/05/30 01:59:10;;;;;;;;;;;13.20;83.50;;;;;;4985077;28;19906;-83
2022/05/30 02:01:37;;;;;;;;;;;13.10;84.10;;;;;;4984407;28;19977;-83
2022/05/30 02:04:03;;;;;;;;;;;13.10;84.10;;;;;;4983968;28;20080;-83
2022/05/30 02:06:31;;;;;;;;;;;13.10;84.00;;;;;;4984663;28;19913;-83
2022/05/30 02:08:57;;;;;;;;;;;13.10;84.20;;;;;;4986885;28;19906;-83
2022/05/30 02:11:22;;;;;;;;;;;13.10;84.30;;;;;;4988122;28;20268;-82
2022/05/30 02:13:48;;;;;;;;;;;13.00;84.30;;;;;;4987899;28;19906;-82
2022/05/30 02:18:58;;;;;;;;;;;13.00;84.60;;;;;;4986462;28;19978;-83
2022/05/30 02:21:24;;;;;;;;;;;13.00;84.80;;;;;;4988493;28;19914;-83
2022/05/30 02:23:49;;;;;;;;;;;13.00;84.70;;;;;;4988244;28;19906;-82
2022/05/30 02:26:15;;;;;;;;;;;13.00;84.90;;;;;;4989194;28;19946;-82
2022/05/30 02:28:41;;;;;;;;;;;12.90;85.10;;;;;;4988875;28;19973;-83
2022/05/30 02:31:06;;;;;;;;;;;12.90;85.10;;;;;;4985410;28;19910;-83
2022/05/30 02:39:00;;;;;;;;;;;12.80;85.60;;;;;;4988129;28;20217;-83
2022/05/30 02:41:26;;;;;;;;;;;12.80;86.00;;;;;;4984810;28;19918;-83
2022/05/30 02:43:51;;;;;;;;;;;12.80;86.00;;;;;;4987846;28;19906;-83
2022/05/30 02:46:17;;;;;;;;;;;12.70;86.10;;;;;;4986205;28;19906;-83
2022/05/30 02:48:43;;;;;;;;;;;12.70;86.40;;;;;;4987576;28;19944;-83
2022/05/30 02:51:08;;;;;;;;;;;12.70;86.80;;;;;;4986695;28;19906;-83
2022/05/30 02:53:34;;;;;;;;;;;12.70;87.30;;;;;;4988208;28;19913;-83
2022/05/30 02:56:01;;;;;;;;;;;12.70;87.60;;;;;;4983683;28;19914;-83
2022/05/30 02:58:26;;;;;;;;;;;12.60;87.70;;;;;;4983264;28;20373;-83
2022/05/30 03:00:52;;;;;;;;;;;12.60;88.10;;;;;;4983933;28;19945;-82
2022/05/30 03:03:18;;;;;;;;;;;12.60;88.70;;;;;;4986052;28;20131;-83
2022/05/30 03:05:44;;;;;;;;;;;12.50;88.80;;;;;;4986864;28;20137;-82
2022/05/30 03:08:09;;;;;;;;;;;12.50;88.90;;;;;;4970378;28;19907;-82
2022/05/30 03:10:35;;;;;;;;;;;12.40;89.90;;;;;;4965191;28;20282;-83
2022/05/30 03:13:01;;;;;;;;;;;12.40;90.00;;;;;;4987686;28;19929;-82
2022/05/30 03:15:26;;;;;;;;;;;12.40;89.70;;;;;;4987325;28;19910;-83
2022/05/30 03:17:52;;;;;;;;;;;12.40;90.20;;;;;;4987513;28;19976;-83
2022/05/30 03:20:18;;;;;;;;;;;12.40;90.00;;;;;;4970056;28;19913;-83
2022/05/30 03:22:44;;;;;;;;;;;12.40;90.10;;;;;;4985647;28;19937;-83
2022/05/30 03:25:10;;;;;;;;;;;12.40;90.30;;;;;;4987038;28;20205;-83
2022/05/30 03:27:35;;;;;;;;;;;12.40;90.50;;;;;;4986291;28;19973;-83
2022/05/30 03:30:01;;;;;;;;;;;12.30;90.80;;;;;;4987407;28;20221;-83
2022/05/30 03:32:26;;;;;;;;;;;12.30;90.90;;;;;;4987503;28;20094;-82
2022/05/30 03:34:52;;;;;;;;;;;12.30;91.00;;;;;;4987055;28;19911;-83
2022/05/30 03:37:18;;;;;;;;;;;12.20;91.10;;;;;;4986747;28;19993;-83
2022/05/30 03:39:43;;;;;;;;;;;12.20;91.40;;;;;;4985483;28;19914;-83
2022/05/30 03:42:13;;;;;;;;;;;12.20;91.40;;;;;;4987145;28;19937;-83
2022/05/30 03:44:39;;;;;;;;;;;12.10;91.60;;;;;;4987003;28;19913;-83
2022/05/30 03:47:05;;;;;;;;;;;12.10;91.80;;;;;;4969367;28;19913;-83
2022/05/30 03:49:30;;;;;;;;;;;12.10;92.00;;;;;;4982404;28;20290;-83
2022/05/30 03:51:57;;;;;;;;;;;12.00;92.50;;;;;;4979449;28;20032;-83
2022/05/30 03:54:23;;;;;;;;;;;12.10;92.60;;;;;;4986450;28;19912;-83
2022/05/30 03:56:48;;;;;;;;;;;12.10;92.60;;;;;;4984923;28;19914;-82
2022/05/30 03:59:14;;;;;;;;;;;12.00;92.70;;;;;;4985776;28;19913;-83
2022/05/30 04:01:39;;;;;;;;;;;12.00;93.00;;;;;;4986841;28;20121;-83
2022/05/30 04:04:05;;;;;;;;;;;11.90;93.30;;;;;;4987366;28;19973;-83
2022/05/30 04:06:31;;;;;;;;;;;11.90;93.50;;;;;;4986656;28;19913;-82
2022/05/30 04:08:56;;;;;;;;;;;11.90;93.80;;;;;;4981566;28;19910;-82
2022/05/30 04:11:22;;;;;;;;;;;11.90;94.00;;;;;;4982871;28;19907;-83
2022/05/30 04:13:48;;;;;;;;;;;11.80;94.70;;;;;;4986639;28;19913;-83
2022/05/30 04:16:13;;;;;;;;;;;11.80;94.70;;;;;;4982269;28;19914;-83
2022/05/30 04:18:39;;;;;;;;;;;11.90;94.80;;;;;;4980199;28;19917;-83
2022/05/30 04:21:05;;;;;;;;;;;11.80;95.10;;;;;;4969408;28;19906;-83
2022/05/30 04:23:31;;;;;;;;;;;11.80;95.40;;;;;;4986496;28;19933;-83
2022/05/30 04:25:56;;;;;;;;;;;11.90;95.60;;;;;;4979681;28;19933;-82
2022/05/30 04:28:22;;;;;;;;;;;11.80;95.60;;;;;;4984665;28;20098;-83
2022/05/30 04:30:47;;;;;;;;;;;11.90;96.00;;;;;;4985127;28;19906;-83
2022/05/30 04:33:13;;;;;;;;;;;11.80;96.00;;;;;;4985855;28;20021;-83
2022/05/30 04:35:41;;;;;;;;;;;11.80;96.30;;;;;;4986337;28;19909;-83
2022/05/30 04:38:07;;;;;;;;;;;11.80;96.40;;;;;;4986112;28;19907;-83
2022/05/30 04:40:32;;;;;;;;;;;11.80;96.40;;;;;;4985890;28;19914;-83
2022/05/30 04:42:58;;;;;;;;;;;11.80;96.80;;;;;;4985003;28;19906;-82
2022/05/30 04:45:24;;;;;;;;;;;11.80;96.90;;;;;;4976307;28;19921;-83
2022/05/30 04:47:49;;;;;;;;;;;11.80;96.80;;;;;;4982982;28;19914;-82
2022/05/30 04:50:16;;;;;;;;;;;11.80;97.00;;;;;;4982690;28;19942;-83
2022/05/30 04:52:42;;;;;;;;;;;11.70;97.30;;;;;;4985511;28;19914;-83
2022/05/30 04:55:09;;;;;;;;;;;11.80;97.50;;;;;;4983273;28;19916;-82
2022/05/30 04:57:45;;;;;;;;;;;11.80;97.60;;;;;;4982041;28;19914;-82
2022/05/30 05:00:12;;;;;;;;;;;11.90;97.70;;;;;;4985480;28;19953;-82
2022/05/30 05:02:37;;;;;;;;;;;11.80;97.60;;;;;;4983807;28;19912;-82
2022/05/30 05:05:03;;;;;;;;;;;11.90;98.00;;;;;;4983214;28;19909;-83
2022/05/30 05:07:34;;;;;;;;;;;11.90;97.90;;;;;;4985794;28;19918;-82
2022/05/30 05:10:02;;;;;;;;;;;11.80;98.20;;;;;;4985742;28;20212;-82
2022/05/30 05:12:28;;;;;;;;;;;11.90;98.30;;;;;;4985277;28;19906;-83
2022/05/30 05:14:53;;;;;;;;;;;11.90;98.50;;;;;;4985265;28;19906;-82
2022/05/30 05:17:21;;;;;;;;;;;11.90;98.50;;;;;;4984445;28;20117;-83
2022/05/30 05:19:46;;;;;;;;;;;11.90;98.80;;;;;;4967822;28;19906;-82
2022/05/30 05:22:13;;;;;;;;;;;12.00;98.70;;;;;;4980274;28;19916;-82
2022/05/30 05:24:39;;;;;;;;;;;12.00;98.90;;;;;;4983053;28;19964;-82
2022/05/30 05:27:05;;;;;;;;;;;12.00;99.10;;;;;;4985166;28;19942;-82
2022/05/30 05:29:31;;;;;;;;;;;12.10;98.90;;;;;;4982300;28;19917;-82
2022/05/30 05:31:57;;;;;;;;;;;12.10;98.80;;;;;;4984969;28;19906;-82
2022/05/30 05:34:23;;;;;;;;;;;12.20;99.10;;;;;;4984492;28;19914;-82
2022/05/30 05:36:48;;;;;;;;;;;12.20;99.00;;;;;;4980221;28;19914;-82
2022/05/30 05:39:15;;;;;;;;;;;12.30;99.10;;;;;;4977764;28;19934;-83
2022/05/30 05:41:42;;;;;;;;;;;12.20;98.80;;;;;;4984046;28;20210;-82
2022/05/30 05:44:08;;;;;;;;;;;12.20;99.10;;;;;;4984851;28;19930;-82
2022/05/30 05:46:33;;;;;;;;;;;12.20;99.30;;;;;;4984208;28;20207;-82
2022/05/30 05:48:59;;;;;;;;;;;12.20;99.50;;;;;;4985007;28;19906;-82
2022/05/30 05:51:25;;;;;;;;;;;12.20;99.90;;;;;;4984163;28;19993;-83
2022/05/30 05:53:53;;;;;;;;;;;12.40;99.70;;;;;;4984539;28;19913;-82
2022/05/30 05:56:23;;;;;;;;;;;12.40;99.40;;;;;;4982156;28;19950;-82
2022/05/30 05:58:49;;;;;;;;;;;12.50;99.60;;;;;;4983425;28;19917;-83
2022/05/30 06:01:17;;;;;;;;;;;12.60;99.40;;;;;;4984956;28;19941;-82
2022/05/30 06:03:42;;;;;;;;;;;12.60;99.60;;;;;;4982875;28;20255;-82
2022/05/30 06:06:08;;;;;;;;;;;12.60;99.60;;;;;;4978261;28;19917;-82
2022/05/30 06:08:33;;;;;;;;;;;12.60;99.40;;;;;;4985014;28;19906;-82
2022/05/30 06:11:05;;;;;;;;;;;12.50;99.90;;;;;;4982163;28;20249;-82
2022/05/30 06:13:31;;;;;;;;;;;12.60;99.90;;;;;;4984315;28;19981;-83
2022/05/30 06:15:56;;;;;;;;;;;12.70;99.80;;;;;;4978793;28;19937;-82
2022/05/30 06:18:22;;;;;;;;;;;12.80;99.80;;;;;;4982290;28;20422;-82
2022/05/30 06:20:47;;;;;;;;;;;12.90;99.70;;;;;;4984613;28;20194;-82
2022/05/30 06:23:13;;;;;;;;;;;13.00;99.70;;;;;;4984566;28;20245;-83
2022/05/30 06:25:38;;;;;;;;;;;13.00;99.40;;;;;;4981570;28;20147;-83
2022/05/30 06:28:04;;;;;;;;;;;13.00;99.60;;;;;;4984293;28;19933;-82
2022/05/30 06:30:29;;;;;;;;;;;13.10;99.90;;;;;;4974119;28;19924;-83
2022/05/30 06:32:55;;;;;;;;;;;13.20;99.40;;;;;;4979102;28;19954;-82
2022/05/30 06:35:21;;;;;;;;;;;13.30;99.50;;;;;;4976177;28;19911;-83
2022/05/30 06:37:46;;;;;;;;;;;13.40;99.50;;;;;;4981842;28;19910;-82
2022/05/30 06:40:13;;;;;;;;;;;13.40;99.30;;;;;;4980861;28;19922;-86
2022/05/30 06:42:38;;;;;;;;;;;13.50;98.90;;;;;;4975231;28;19917;-86
2022/05/30 06:45:04;;;;;;;;;;;13.50;99.00;;;;;;4976091;28;19914;-86
2022/05/30 06:47:29;;;;;;;;;;;13.70;99.10;;;;;;4974483;28;19945;-85
2022/05/30 06:49:55;;;;;;;;;;;13.80;98.80;;;;;;4974394;28;19911;-86
2022/05/30 06:52:20;;;;;;;;;;;13.90;98.40;;;;;;4974289;28;19910;-85
2022/05/30 06:54:46;;;;;;;;;;;14.00;98.30;;;;;;4976647;28;20311;-85
2022/05/30 06:59:56;;;;;;;;;;;14.20;97.70;;;;;;4977737;28;19966;-85
2022/05/30 07:02:21;;;;;;;;;;;14.30;97.40;;;;;;4982861;28;19910;-85
2022/05/30 07:04:47;;;;;;;;;;;14.40;96.90;;;;;;4979909;28;19964;-84
2022/05/30 07:07:13;;;;;;;;;;;14.50;97.40;;;;;;4977713;28;19911;-85
2022/05/30 07:09:39;;;;;;;;;;;14.60;96.40;;;;;;4977685;28;19910;-85
2022/05/30 07:12:06;;;;;;;;;;;14.60;96.50;;;;;;4977577;28;20009;-85
2022/05/30 07:14:31;;;;;;;;;;;14.60;96.30;;;;;;4978869;28;19914;-85
2022/05/30 07:16:57;;;;;;;;;;;14.80;96.20;;;;;;4977346;28;19965;-84
2022/05/30 07:19:22;;;;;;;;;;;14.90;95.30;;;;;;4977550;28;19964;-84
2022/05/30 07:21:48;;;;;;;;;;;14.90;95.10;;;;;;4977961;28;20366;-85
2022/05/30 07:24:13;;;;;;;;;;;14.90;95.00;;;;;;4977549;28;19915;-84
2022/05/30 07:26:39;;;;;;;;;;;15.00;94.80;;;;;;4977504;28;20354;-83
2022/05/30 07:29:05;;;;;;;;;;;15.20;95.00;;;;;;4977211;28;20314;-86
2022/05/30 07:31:31;;;;;;;;;;;15.30;95.00;;;;;;4977168;28;20412;-85
2022/05/30 07:33:57;;;;;;;;;;;15.40;94.60;;;;;;4976882;28;19910;-85
2022/05/30 07:36:25;;;;;;;;;;;15.50;94.80;;;;;;4977105;28;19918;-85
2022/05/30 07:38:51;;;;;;;;;;;15.70;93.50;;;;;;4977064;28;19910;-84
2022/05/30 07:41:17;;;;;;;;;;;15.70;93.70;;;;;;4977042;28;19922;-85
2022/05/30 07:43:43;;;;;;;;;;;15.90;93.90;;;;;;4977208;28;20408;-85
2022/05/30 07:46:10;;;;;;;;;;;16.20;93.50;;;;;;4977103;28;19911;-85
2022/05/30 07:48:36;;;;;;;;;;;16.30;92.50;;;;;;4977065;28;19910;-85
2022/05/30 07:51:02;;;;;;;;;;;16.40;91.80;;;;;;4978209;28;19910;-85
2022/05/30 07:53:28;;;;;;;;;;;16.40;91.90;;;;;;4978153;28;19917;-85
2022/05/30 07:55:53;;;;;;;;;;;16.60;91.40;;;;;;4976751;28;19915;-86
2022/05/30 07:58:19;;;;;;;;;;;16.70;92.10;;;;;;4976832;28;19915;-85
2022/05/30 08:00:45;;;;;;;;;;;16.80;93.90;;;;;;4976885;28;19917;-85
2022/05/30 08:03:11;;;;;;;;;;;16.90;93.00;;;;;;4976606;28;20389;-84
2022/05/30 08:05:39;;;;;;;;;;;17.00;92.60;;;;;;4975696;28;20378;-84
2022/05/30 08:08:05;;;;;;;;;;;17.10;91.40;;;;;;4976421;28;20424;-85
2022/05/30 08:10:31;;;;;;;;;;;17.20;91.40;;;;;;4976715;28;19917;-84
2022/05/30 08:12:56;;;;;;;;;;;17.20;91.20;;;;;;4976765;28;19910;-85
2022/05/30 08:15:22;;;;;;;;;;;17.30;91.30;;;;;;4976144;28;19960;-84
2022/05/30 08:17:47;;;;;;;;;;;17.40;91.40;;;;;;4976207;28;19941;-85
2022/05/30 08:20:14;;;;;;;;;;;17.50;90.50;;;;;;4976457;28;19949;-83
2022/05/30 08:22:40;;;;;;;;;;;17.60;90.40;;;;;;4976315;28;20371;-83
2022/05/30 08:25:08;;;;;;;;;;;17.70;88.90;;;;;;4977470;28;19916;-83
2022/05/30 08:27:33;;;;;;;;;;;17.70;89.70;;;;;;4976325;28;19961;-83
2022/05/30 08:29:59;;;;;;;;;;;17.60;89.60;;;;;;4981901;28;20098;-83
2022/05/30 08:32:31;;;;;;;;;;;17.70;89.70;;;;;;4985114;28;19906;-83
2022/05/30 08:34:59;;;;;;;;;;;17.80;89.60;;;;;;4983748;28;19912;-83
2022/05/30 08:37:30;;;;;;;;;;;17.90;85.90;;;;;;4985288;28;20268;-84
2022/05/30 08:42:41;;;;;;;;;;;18.10;83.30;;;;;;4986224;28;20145;-83
2022/05/30 08:45:09;;;;;;;;;;;18.10;82.70;;;;;;4985810;28;19969;-82
2022/05/30 08:47:35;;;;;;;;;;;18.20;83.50;;;;;;4986194;28;19910;-83
2022/05/30 08:50:24;;;;;;;;;;;18.30;81.30;;;;;;4984154;28;19981;-83
2022/05/30 08:52:49;;;;;;;;;;;18.40;80.90;;;;;;4958213;28;19906;-83
2022/05/30 08:55:44;;;;;;;;;;;18.50;79.60;;;;;;4986135;28;20009;-83
2022/05/30 08:58:15;;;;;;;;;;;18.60;79.30;;;;;;4933748;28;19911;-84
2022/05/30 09:00:48;;;;;;;;;;;18.50;78.20;;;;;;4985223;28;20321;-83
2022/05/30 09:03:32;;;;;;;;;;;18.60;77.80;;;;;;4986039;28;19957;-83
2022/05/30 09:06:01;;;;;;;;;;;18.80;76.60;;;;;;4986038;28;19910;-83
2022/05/30 09:08:30;;;;;;;;;;;18.90;76.00;;;;;;4968604;28;19910;-83
2022/05/30 09:10:58;;;;;;;;;;;19.00;75.30;;;;;;4985800;28;19921;-83
2022/05/30 09:13:31;;;;;;;;;;;19.10;74.10;;;;;;4985398;28;19985;-83
2022/05/30 09:16:06;;;;;;;;;;;19.20;73.20;;;;;;4967630;28;19910;-83
2022/05/30 09:18:52;;;;;;;;;;;19.30;71.50;;;;;;4986012;28;20213;-84
2022/05/30 09:21:19;;;;;;;;;;;19.30;72.00;;;;;;4984262;28;19906;-83
2022/05/30 09:23:44;;;;;;;;;;;19.20;71.80;;;;;;4985760;28;20212;-83
2022/05/30 09:26:12;;;;;;;;;;;19.20;72.40;;;;;;4984930;28;19929;-83
2022/05/30 09:28:41;;;;;;;;;;;19.40;71.10;;;;;;5000346;28;19913;-83
2022/05/30 09:31:17;;;;;;;;;;;19.40;70.80;;;;;;4985064;28;19910;-83
2022/05/30 09:33:47;;;;;;;;;;;19.50;69.80;;;;;;4985562;28;20252;-83
2022/05/30 09:36:13;;;;;;;;;;;19.50;68.40;;;;;;4985754;28;19913;-83
2022/05/30 09:38:43;;;;;;;;;;;19.50;67.60;;;;;;4981888;28;20015;-83
2022/05/30 09:41:21;;;;;;;;;;;19.60;66.50;;;;;;4975685;28;20438;-87
2022/05/30 09:44:03;;;;;;;;;;;19.50;67.60;;;;;;4975027;28;20382;-84
2022/05/30 09:46:37;;;;;;;;;;;19.40;67.30;;;;;;4974877;28;19917;-84
2022/05/30 09:49:08;;;;;;;;;;;19.50;67.70;;;;;;4974350;28;20452;-84
2022/05/30 09:51:42;;;;;;;;;;;19.80;67.50;;;;;;4974791;28;19918;-84
2022/05/30 09:54:30;;;;;;;;;;;19.90;66.90;;;;;;4974896;28;19910;-84
2022/05/30 09:57:02;;;;;;;;;;;20.00;66.70;;;;;;4973476;28;20341;-84
2022/05/30 09:59:32;;;;;;;;;;;20.10;66.00;;;;;;4974811;28;20289;-84
2022/05/30 10:01:58;;;;;;;;;;;20.20;66.20;;;;;;4957548;28;19911;-84
2022/05/30 10:04:26;;;;;;;;;;;20.30;65.90;;;;;;4975316;28;19921;-84
2022/05/30 10:07:10;;;;;;;;;;;20.20;65.50;;;;;;4974708;28;19917;-84
2022/05/30 10:09:39;;;;;;;;;;;20.20;64.80;;;;;;4974625;28;19910;-84
2022/05/30 10:12:05;;;;;;;;;;;20.20;65.00;;;;;;4974533;28;20356;-84
2022/05/30 10:14:34;;;;;;;;;;;20.20;63.90;;;;;;4974635;28;19910;-84
2022/05/30 10:17:29;;;;;;;;;;;20.20;63.30;;;;;;4974979;28;20429;-84
2022/05/30 10:19:54;;;;;;;;;;;20.40;63.80;;;;;;4962069;28;19946;-83
2022/05/30 10:28:49;;;;;;;;;;;20.80;63.20;;;;;;4975011;28;19965;-83
2022/05/30 10:31:21;;;;;;;;;;;21.00;63.80;;;;;;4978245;28;19910;-83
2022/05/30 10:34:01;;;;;;;;;;;21.20;63.20;;;;;;4978266;28;19914;-83
2022/05/30 10:36:32;;;;;;;;;;;21.30;63.30;;;;;;4978239;28;20405;-83
2022/05/30 10:39:16;;;;;;;;;;;21.50;63.80;;;;;;4980707;28;19933;-84
2022/05/30 10:41:50;;;;;;;;;;;21.60;63.00;;;;;;4988766;28;19948;-83
2022/05/30 10:44:23;;;;;;;;;;;21.60;62.30;;;;;;4988745;28;19973;-83
2022/05/30 10:47:07;;;;;;;;;;;21.60;62.20;;;;;;4988712;28;19953;-83
2022/05/30 10:49:35;;;;;;;;;;;21.60;61.50;;;;;;4988341;28;19938;-84
2022/05/30 10:52:04;;;;;;;;;;;21.60;61.50;;;;;;4988625;28;20150;-83
2022/05/30 10:54:41;;;;;;;;;;;21.70;60.70;;;;;;4988828;28;19906;-84
2022/05/30 10:57:10;;;;;;;;;;;21.80;62.30;;;;;;4988241;28;19914;-83
2022/05/30 10:59:55;;;;;;;;;;;22.00;60.70;;;;;;4987667;28;19973;-83
2022/05/30 11:02:27;;;;;;;;;;;22.30;60.10;;;;;;4987851;28;20098;-83
2022/05/30 11:04:55;;;;;;;;;;;22.30;59.60;;;;;;4987926;28;19906;-83
2022/05/30 11:07:28;;;;;;;;;;;22.40;59.40;;;;;;4978923;28;19910;-83
2022/05/30 11:10:03;;;;;;;;;;;22.40;59.30;;;;;;4977929;28;20453;-83
2022/05/30 11:12:32;;;;;;;;;;;22.60;58.80;;;;;;4983302;28;19933;-83
2022/05/30 11:15:02;;;;;;;;;;;22.60;59.30;;;;;;4981066;28;19958;-83
2022/05/30 11:17:37;;;;;;;;;;;22.90;59.00;;;;;;4980765;28;20217;-83
2022/05/30 11:20:08;;;;;;;;;;;23.00;58.50;;;;;;4987309;28;19938;-82
2022/05/30 11:22:40;;;;;;;;;;;23.00;59.10;;;;;;4988003;28;19910;-83
2022/05/30 11:25:07;;;;;;;;;;;22.90;58.00;;;;;;4985447;28;19945;-83
2022/05/30 11:27:51;;;;;;;;;;;22.90;59.60;;;;;;4986521;28;19907;-84
2022/05/30 11:30:36;;;;;;;;;;;22.90;58.10;;;;;;4986568;28;19906;-83
2022/05/30 11:33:02;;;;;;;;;;;22.90;58.70;;;;;;4987945;28;19906;-84
2022/05/30 11:35:33;;;;;;;;;;;22.70;57.90;;;;;;4986622;28;19989;-83
2022/05/30 11:37:58;;;;;;;;;;;22.80;59.20;;;;;;4987029;28;19945;-84
2022/05/30 11:40:34;;;;;;;;;;;22.80;57.30;;;;;;4986806;28;19918;-84
2022/05/30 11:43:05;;;;;;;;;;;22.90;58.00;;;;;;4986873;28;19914;-84
2022/05/30 11:45:51;;;;;;;;;;;23.10;57.40;;;;;;4987552;28;20190;-84
2022/05/30 11:48:22;;;;;;;;;;;23.20;56.70;;;;;;4987339;28;19945;-84
2022/05/30 11:51:00;;;;;;;;;;;23.50;57.30;;;;;;4985831;28;19906;-83
2022/05/30 11:53:35;;;;;;;;;;;23.80;57.80;;;;;;4986978;28;19910;-83
2022/05/30 11:56:05;;;;;;;;;;;23.90;57.40;;;;;;4986934;28;19910;-83
2022/05/30 11:58:30;;;;;;;;;;;23.80;56.20;;;;;;4987497;28;20107;-83
2022/05/30 12:00:57;;;;;;;;;;;23.80;57.80;;;;;;4987346;28;19969;-83
2022/05/30 12:03:35;;;;;;;;;;;23.90;56.30;;;;;;4986806;28;20205;-84
2022/05/30 12:06:03;;;;;;;;;;;23.80;55.90;;;;;;4987102;28;19906;-83
2022/05/30 12:08:47;;;;;;;;;;;23.60;56.70;;;;;;4986934;28;19942;-84
2022/05/30 12:11:25;;;;;;;;;;;23.50;56.20;;;;;;4986368;28;19910;-83
2022/05/30 12:13:53;;;;;;;;;;;23.60;56.90;;;;;;4978497;28;19997;-83
2022/05/30 12:16:25;;;;;;;;;;;23.90;55.70;;;;;;4974977;28;19921;-84
2022/05/30 12:24:30;;;;;;;;;;;24.20;56.00;;;;;;4976744;28;19917;-83
2022/05/30 12:26:56;;;;;;;;;;;24.40;55.10;;;;;;4977527;28;19911;-84
2022/05/30 12:29:31;;;;;;;;;;;24.60;54.20;;;;;;4976429;28;19911;-84
2022/05/30 12:32:16;;;;;;;;;;;24.90;54.40;;;;;;4976282;28;20377;-88
2022/05/30 12:35:32;;;;;;;;;;;25.40;54.20;;;;;;4976032;28;20386;-84
2022/05/30 12:37:57;;;;;;;;;;;25.80;52.30;;;;;;4974732;28;19918;-85
2022/05/30 12:40:25;;;;;;;;;;;26.00;52.40;;;;;;4974432;28;20393;-85
2022/05/30 12:43:02;;;;;;;;;;;26.10;52.50;;;;;;4975897;28;20400;-85
2022/05/30 12:45:33;;;;;;;;;;;26.20;52.00;;;;;;4975925;28;19918;-85
2022/05/30 12:48:00;;;;;;;;;;;26.40;51.90;;;;;;4974554;28;19917;-85
2022/05/30 12:50:29;;;;;;;;;;;26.70;51.40;;;;;;4975989;28;19911;-85
2022/05/30 12:52:57;;;;;;;;;;;26.70;50.30;;;;;;4975419;28;19921;-85
2022/05/30 12:55:35;;;;;;;;;;;27.00;52.00;;;;;;4975766;28;20374;-85
2022/05/30 12:58:01;;;;;;;;;;;27.20;49.90;;;;;;4976129;28;19922;-85
2022/05/30 13:00:42;;;;;;;;;;;27.50;48.90;;;;;;4975367;28;20436;-85
2022/05/30 13:03:23;;;;;;;;;;;27.70;51.00;;;;;;4975591;28;19914;-85
2022/05/30 13:06:01;;;;;;;;;;;27.40;50.90;;;;;;4975548;28;19966;-85
2022/05/30 13:08:45;;;;;;;;;;;27.10;49.80;;;;;;4975430;28;19956;-85
2022/05/30 13:11:13;;;;;;;;;;;27.00;49.70;;;;;;4975611;28;20325;-85
2022/05/30 13:13:41;;;;;;;;;;;27.00;49.60;;;;;;4975518;28;19910;-85
2022/05/30 13:16:13;;;;;;;;;;;27.30;49.30;;;;;;4975377;28;20016;-85
2022/05/30 13:18:39;;;;;;;;;;;27.60;48.60;;;;;;4975660;28;19977;-85
2022/05/30 13:21:06;;;;;;;;;;;28.00;49.00;;;;;;4975760;28;20358;-85
2022/05/30 13:23:33;;;;;;;;;;;27.50;48.00;;;;;;4975257;28;19957;-85
2022/05/30 13:26:00;;;;;;;;;;;27.80;48.40;;;;;;4975800;28;20274;-85
2022/05/30 13:28:31;;;;;;;;;;;28.10;48.80;;;;;;4975321;28;19937;-85
2022/05/30 13:30:59;;;;;;;;;;;28.40;48.30;;;;;;4975344;28;20421;-85
2022/05/30 13:33:27;;;;;;;;;;;29.10;47.80;;;;;;4957936;28;19910;-85
2022/05/30 13:35:55;;;;;;;;;;;29.40;48.30;;;;;;4974844;28;19914;-85
2022/05/30 13:38:25;;;;;;;;;;;30.20;48.40;;;;;;4975061;28;19965;-85
2022/05/30 13:40:50;;;;;;;;;;;31.30;49.50;;;;;;4974717;28;19929;-85
2022/05/30 13:43:29;;;;;;;;;;;32.90;46.80;;;;;;4975263;28;19911;-85
2022/05/30 13:45:55;;;;;;;;;;;34.30;45.80;;;;;;4974792;28;19969;-85
2022/05/30 13:48:21;;;;;;;;;;;36.30;44.70;;;;;;4974962;28;19993;-85
2022/05/30 13:50:49;;;;;;;;;;;38.00;43.30;;;;;;4973881;28;19950;-85
2022/05/30 13:53:18;;;;;;;;;;;38.50;41.70;;;;;;4975138;28;19965;-84
2022/05/30 13:56:10;;;;;;;;;;;38.40;42.10;;;;;;4974797;28;19917;-85
2022/05/30 13:58:37;;;;;;;;;;;39.00;41.20;;;;;;4972072;28;19918;-85
2022/05/30 14:01:04;;;;;;;;;;;39.40;41.50;;;;;;4974703;28;19917;-85
2022/05/30 14:03:31;;;;;;;;;;;39.00;42.30;;;;;;4975129;28;19918;-85
2022/05/30 14:05:56;;;;;;;;;;;38.30;42.30;;;;;;4978628;28;19916;-85
2022/05/30 14:08:42;;;;;;;;;;;37.80;41.80;;;;;;4978732;28;19911;-85
2022/05/30 14:11:08;;;;;;;;;;;36.70;41.70;;;;;;4978230;28;20370;-85
2022/05/30 14:13:35;;;;;;;;;;;35.30;42.10;;;;;;4978857;28;20001;-85
2022/05/30 14:16:04;;;;;;;;;;;33.30;44.30;;;;;;4978526;28;19914;-85
2022/05/30 14:18:46;;;;;;;;;;;31.40;45.40;;;;;;4978881;28;19968;-85
2022/05/30 14:21:15;;;;;;;;;;;30.20;46.30;;;;;;4978322;28;19933;-85
2022/05/30 14:23:41;;;;;;;;;;;30.10;47.00;;;;;;4978409;28;19957;-85
2022/05/30 14:26:09;;;;;;;;;;;31.60;46.30;;;;;;4978456;28;19953;-85
2022/05/30 14:28:52;;;;;;;;;;;32.60;46.30;;;;;;4978508;28;19921;-85
2022/05/30 14:31:19;;;;;;;;;;;31.80;48.80;;;;;;4961097;28;20370;-85
2022/05/30 14:34:10;;;;;;;;;;;30.20;49.90;;;;;;4961127;28;19946;-85
2022/05/30 14:36:37;;;;;;;;;;;30.20;50.50;;;;;;4978470;28;20004;-85
2022/05/30 14:39:13;;;;;;;;;;;29.20;50.40;;;;;;4978316;28;20370;-85
2022/05/30 14:41:39;;;;;;;;;;;28.20;53.10;;;;;;4978023;28;19961;-85
2022/05/30 14:44:04;;;;;;;;;;;27.70;53.10;;;;;;4978009;28;20008;-85
2022/05/30 14:46:39;;;;;;;;;;;26.90;52.50;;;;;;4977935;28;19934;-85
2022/05/30 14:49:16;;;;;;;;;;;26.50;53.60;;;;;;4978007;28;19916;-84
2022/05/30 14:51:53;;;;;;;;;;;26.10;53.30;;;;;;4978039;28;19910;-84
2022/05/30 14:54:30;;;;;;;;;;;25.50;56.90;;;;;;4978102;28;19910;-85